createdAt,value
2022-09-16T00:00:51.498Z,3.90
2022-09-16T00:03:19.050Z,5.82
2022-09-16T00:05:52.920Z,6.32
2022-09-16T00:08:21.878Z,5.82
2022-09-16T00:10:49.138Z,5.15
2022-09-16T00:13:16.452Z,6.03
2022-09-16T00:15:50.607Z,4.93
2022-09-16T00:18:17.482Z,6.90
2022-09-16T00:20:51.166Z,7.18
2022-09-16T00:23:19.209Z,5.53
2022-09-16T00:25:54.607Z,6.57
2022-09-16T00:28:23.588Z,2.92
2022-09-16T00:30:50.711Z,3.72
2022-09-16T00:33:19.795Z,3.63
2022-09-16T00:35:47.571Z,5.15
2022-09-16T00:38:14.449Z,4.93
2022-09-16T00:40:49.740Z,4.75
2022-09-16T00:43:19.363Z,4.60
2022-09-16T00:46:01.373Z,5.13
2022-09-16T00:48:32.464Z,5.22
2022-09-16T00:51:09.162Z,4.50
2022-09-16T00:53:51.995Z,7.00
2022-09-16T00:56:23.629Z,4.38
2022-09-16T00:59:24.517Z,6.28
2022-09-16T01:01:53.514Z,7.78
2022-09-16T01:04:31.168Z,3.08
2022-09-16T01:06:58.246Z,4.75
2022-09-16T01:09:27.641Z,5.25
2022-09-16T01:11:54.435Z,6.22
2022-09-16T01:14:43.644Z,3.25
2022-09-16T01:17:26.138Z,5.32
2022-09-16T01:20:30.018Z,2.78
2022-09-16T01:23:21.073Z,5.38
2022-09-16T01:26:20.898Z,4.25
2022-09-16T01:29:33.569Z,3.95
2022-09-16T01:32:33.620Z,4.47
2022-09-16T01:35:20.954Z,2.80
2022-09-16T01:38:30.810Z,3.00
2022-09-16T01:41:24.696Z,3.22
2022-09-16T01:44:19.396Z,2.78
2022-09-16T01:47:21.788Z,3.15
2022-09-16T01:50:09.982Z,2.72
2022-09-16T01:52:56.900Z,2.92
2022-09-16T01:55:58.306Z,2.63
2022-09-16T01:58:39.487Z,2.65
2022-09-16T02:01:23.450Z,5.13
2022-09-16T02:04:00.110Z,2.95
2022-09-16T02:06:30.115Z,2.97
2022-09-16T02:09:07.075Z,4.35
2022-09-16T02:11:36.671Z,2.05
2022-09-16T02:14:15.297Z,4.47
2022-09-16T02:17:09.071Z,2.63
2022-09-16T02:19:51.927Z,3.92
2022-09-16T02:22:30.982Z,4.78
2022-09-16T02:25:03.039Z,3.22
2022-09-16T02:27:32.433Z,4.03
2022-09-16T02:30:06.566Z,2.42
2022-09-16T02:32:40.959Z,3.45
2022-09-16T02:35:13.847Z,3.45
2022-09-16T02:37:49.302Z,3.30
2022-09-16T02:40:25.058Z,3.13
2022-09-16T02:42:52.921Z,4.30
2022-09-16T02:45:29.763Z,4.88
2022-09-16T02:48:21.238Z,4.65
2022-09-16T02:51:03.867Z,4.22
2022-09-16T02:53:50.060Z,2.20
2022-09-16T02:56:39.641Z,3.05
2022-09-16T02:59:10.276Z,3.88
2022-09-16T03:01:46.841Z,6.88
2022-09-16T03:04:18.370Z,3.22
2022-09-16T03:06:46.857Z,3.78
2022-09-16T03:09:18.002Z,2.70
2022-09-16T03:12:10.515Z,2.17
2022-09-16T03:15:10.865Z,5.63
2022-09-16T03:18:22.303Z,8.57
2022-09-16T03:21:27.352Z,3.60
2022-09-16T03:24:23.608Z,3.47
2022-09-16T03:27:16.113Z,3.97
2022-09-16T03:29:55.791Z,4.30
2022-09-16T03:32:32.866Z,5.78
2022-09-16T03:35:04.144Z,5.80
2022-09-16T03:37:35.393Z,4.60
2022-09-16T03:40:21.262Z,2.28
2022-09-16T03:42:48.191Z,4.35
2022-09-16T03:45:22.040Z,4.60
2022-09-16T03:47:52.433Z,2.33
2022-09-16T03:50:21.433Z,4.70
2022-09-16T03:52:48.326Z,0.90
2022-09-16T03:55:16.938Z,2.70
2022-09-16T03:57:44.008Z,3.00
2022-09-16T04:00:11.764Z,4.15
2022-09-16T04:02:38.953Z,1.98
2022-09-16T04:05:08.082Z,4.57
2022-09-16T04:07:35.847Z,3.78
2022-09-16T04:10:03.131Z,2.28
2022-09-16T04:12:29.933Z,2.53
2022-09-16T04:14:56.936Z,3.33
2022-09-16T04:17:24.484Z,2.58
2022-09-16T04:19:52.826Z,3.45
2022-09-16T04:22:19.680Z,2.00
2022-09-16T04:24:46.551Z,4.07
2022-09-16T04:27:13.275Z,1.90
2022-09-16T04:29:40.045Z,4.55
2022-09-16T04:32:06.913Z,1.75
2022-09-16T04:34:33.684Z,3.67
2022-09-16T04:37:00.398Z,3.08
2022-09-16T04:39:27.142Z,3.53
2022-09-16T04:41:53.875Z,3.08
2022-09-16T04:44:20.752Z,2.47
2022-09-16T04:46:47.756Z,2.65
2022-09-16T04:49:14.799Z,3.03
2022-09-16T04:51:41.769Z,4.80
2022-09-16T04:54:09.421Z,2.55
2022-09-16T04:56:36.141Z,3.63
2022-09-16T04:59:05.627Z,3.45
2022-09-16T05:01:39.263Z,4.15
2022-09-16T05:04:07.708Z,2.85
2022-09-16T05:06:40.922Z,3.88
2022-09-16T05:09:10.843Z,2.72
2022-09-16T05:11:39.967Z,2.92
2022-09-16T05:14:14.151Z,1.65
2022-09-16T05:16:41.486Z,3.92
2022-09-16T05:19:11.217Z,2.63
2022-09-16T05:21:40.021Z,4.85
2022-09-16T05:24:11.003Z,2.75
2022-09-16T05:26:42.166Z,4.55
2022-09-16T05:29:15.744Z,3.53
2022-09-16T05:31:47.113Z,2.13
2022-09-16T05:34:18.496Z,4.47
2022-09-16T05:36:47.626Z,5.78
2022-09-16T05:39:25.929Z,5.03
2022-09-16T05:41:59.962Z,4.75
2022-09-16T05:44:28.459Z,1.20
2022-09-16T05:46:55.970Z,4.57
2022-09-16T05:49:23.634Z,3.35
2022-09-16T05:51:51.774Z,2.20
2022-09-16T05:54:19.810Z,2.50
2022-09-16T05:56:47.787Z,3.72
2022-09-16T05:59:16.389Z,2.80
2022-09-16T06:01:43.820Z,1.35
2022-09-16T06:04:13.426Z,8.02
2022-09-16T06:06:43.303Z,3.20
2022-09-16T06:09:23.418Z,4.93
2022-09-16T06:11:57.927Z,2.55
2022-09-16T06:14:28.096Z,2.70
2022-09-16T06:16:54.991Z,4.30
2022-09-16T06:19:22.425Z,2.80
2022-09-16T06:21:49.398Z,5.32
2022-09-16T06:24:18.659Z,4.40
2022-09-16T06:26:47.444Z,4.47
2022-09-16T06:29:15.857Z,3.28
2022-09-16T06:31:43.073Z,2.63
2022-09-16T06:34:16.460Z,5.50
2022-09-16T06:36:45.452Z,5.18
2022-09-16T06:39:16.033Z,4.18
2022-09-16T06:41:43.481Z,6.25
2022-09-16T06:44:10.312Z,5.80
2022-09-16T06:46:37.420Z,3.25
2022-09-16T06:49:06.065Z,3.47
2022-09-16T06:51:34.279Z,8.25
2022-09-16T06:54:05.731Z,4.20
2022-09-16T06:56:35.825Z,3.60
2022-09-16T06:59:02.537Z,3.22
2022-09-16T07:01:32.189Z,4.07
2022-09-16T07:04:05.261Z,5.80
2022-09-16T07:06:57.765Z,6.75
2022-09-16T07:09:20.348Z,3.55
2022-09-16T07:11:47.044Z,6.40
2022-09-16T07:14:13.774Z,2.13
2022-09-16T07:16:40.572Z,6.68
2022-09-16T07:19:07.527Z,5.38
2022-09-16T07:21:34.518Z,5.70
2022-09-16T07:24:03.568Z,3.53
2022-09-16T07:26:33.769Z,4.60
2022-09-16T07:29:03.681Z,2.78
2022-09-16T07:31:34.477Z,7.35
2022-09-16T07:34:04.775Z,3.83
2022-09-16T07:36:39.907Z,3.13
2022-09-16T07:39:08.087Z,4.00
2022-09-16T07:41:40.370Z,4.35
2022-09-16T07:44:11.562Z,4.95
2022-09-16T07:46:38.619Z,3.53
2022-09-16T07:49:08.404Z,2.97
2022-09-16T07:51:35.509Z,3.22
2022-09-16T07:54:06.057Z,2.05
2022-09-16T07:56:36.947Z,3.20
2022-09-16T07:59:13.055Z,3.03
2022-09-16T08:01:43.638Z,3.47
2022-09-16T08:04:12.135Z,5.75
2022-09-16T08:06:40.018Z,4.65
2022-09-16T08:09:21.094Z,4.03
2022-09-16T08:11:53.635Z,3.08
2022-09-16T08:14:20.358Z,2.38
2022-09-16T08:16:51.091Z,2.92
2022-09-16T08:19:19.195Z,2.47
2022-09-16T08:21:46.276Z,3.17
2022-09-16T08:24:12.986Z,3.90
2022-09-16T08:26:40.340Z,5.30
2022-09-16T08:29:09.744Z,8.77
2022-09-16T08:31:38.379Z,3.83
2022-09-16T08:34:06.137Z,7.32
2022-09-16T08:36:33.724Z,2.85
2022-09-16T08:39:01.312Z,3.47
2022-09-16T08:41:45.189Z,2.05
2022-09-16T08:44:35.218Z,2.17
2022-09-16T08:47:22.276Z,3.40
2022-09-16T08:49:51.224Z,3.58
2022-09-16T08:52:37.369Z,3.88
2022-09-16T08:55:13.062Z,4.10
2022-09-16T08:58:06.035Z,2.55
2022-09-16T09:00:34.101Z,2.28
2022-09-16T09:03:33.505Z,2.80
2022-09-16T09:06:04.655Z,1.70
2022-09-16T09:09:06.042Z,3.70
2022-09-16T09:11:52.609Z,4.47
2022-09-16T09:14:38.247Z,3.40
2022-09-16T09:17:24.384Z,3.13
2022-09-16T09:20:30.533Z,2.83
2022-09-16T09:23:44.036Z,3.22
2022-09-16T09:26:25.605Z,4.10
2022-09-16T09:29:22.079Z,3.28
2022-09-16T09:32:17.576Z,4.25
2022-09-16T09:35:00.949Z,3.97
2022-09-16T09:38:32.153Z,4.57
2022-09-16T09:41:19.583Z,2.50
2022-09-16T09:44:31.362Z,1.52
2022-09-16T09:47:06.119Z,4.05
2022-09-16T09:49:57.640Z,3.40
2022-09-16T09:52:44.902Z,2.35
2022-09-16T09:55:25.758Z,1.77
2022-09-16T09:58:14.363Z,3.10
2022-09-16T10:00:41.393Z,2.78
2022-09-16T10:03:18.204Z,2.05
2022-09-16T10:05:47.252Z,5.53
2022-09-16T10:08:46.101Z,2.13
2022-09-16T10:11:28.704Z,6.68
2022-09-16T10:13:59.973Z,5.40
2022-09-16T10:16:39.536Z,2.40
2022-09-16T10:19:22.115Z,3.72
2022-09-16T10:22:09.725Z,2.05
2022-09-16T10:24:43.029Z,3.97
2022-09-16T10:27:34.101Z,1.17
2022-09-16T10:33:05.484Z,1.58
2022-09-16T10:35:36.804Z,3.47
2022-09-16T10:38:09.667Z,1.88
2022-09-16T10:40:37.419Z,0.90
2022-09-16T10:43:14.826Z,1.90
2022-09-16T10:45:52.528Z,1.75
2022-09-16T10:48:28.972Z,3.30
2022-09-16T10:51:02.798Z,2.60
2022-09-16T10:53:44.080Z,4.00
2022-09-16T10:56:25.547Z,1.67
2022-09-16T10:59:15.478Z,1.23
2022-09-16T11:02:41.049Z,2.30
2022-09-16T11:05:33.381Z,1.67
2022-09-16T11:08:51.155Z,3.08
2022-09-16T11:11:58.564Z,2.40
2022-09-16T11:15:20.443Z,2.28
2022-09-16T11:18:12.159Z,3.85
2022-09-16T11:21:03.223Z,2.00
2022-09-16T11:24:01.011Z,2.95
2022-09-16T11:27:01.060Z,3.22
2022-09-16T11:29:49.317Z,2.95
2022-09-16T11:32:56.069Z,3.33
2022-09-16T11:36:10.296Z,4.20
2022-09-16T11:39:17.707Z,9.40
2022-09-16T11:42:02.399Z,4.80
2022-09-16T11:44:44.048Z,4.88
2022-09-16T11:47:37.088Z,5.03
2022-09-16T11:50:51.331Z,4.25
2022-09-16T11:53:58.542Z,5.97
2022-09-16T11:56:52.964Z,4.68
2022-09-16T11:59:28.641Z,2.83
2022-09-16T12:02:03.451Z,4.25
2022-09-16T12:04:48.643Z,2.85
2022-09-16T12:07:29.348Z,4.70
2022-09-16T12:10:21.215Z,2.22
2022-09-16T12:13:12.339Z,4.10
2022-09-16T12:15:54.237Z,1.92
2022-09-16T12:18:28.588Z,4.22
2022-09-16T12:21:08.419Z,3.47
2022-09-16T12:23:44.929Z,3.85
2022-09-16T12:26:33.428Z,6.43
2022-09-16T12:29:34.365Z,4.32
2022-09-16T12:32:14.864Z,4.40
2022-09-16T12:34:55.489Z,7.75
2022-09-16T12:37:38.221Z,6.68
2022-09-16T12:40:17.566Z,6.72
2022-09-16T12:43:19.375Z,4.75
2022-09-16T12:46:14.219Z,9.30
2022-09-16T12:49:14.885Z,5.68
2022-09-16T12:51:56.791Z,5.32
2022-09-16T12:55:08.749Z,5.53
2022-09-16T12:58:00.928Z,3.88
2022-09-16T13:01:02.405Z,2.63
2022-09-16T13:06:19.481Z,5.78
2022-09-16T13:08:46.484Z,5.93
2022-09-16T13:14:25.284Z,5.07
2022-09-16T13:16:57.138Z,6.22
2022-09-16T13:19:47.928Z,6.28
2022-09-16T13:22:27.015Z,6.15
2022-09-16T13:25:06.676Z,6.18
2022-09-16T13:27:40.783Z,7.82
2022-09-16T13:30:13.033Z,6.30
2022-09-16T13:32:59.610Z,5.72
2022-09-16T13:35:32.476Z,8.02
2022-09-16T13:38:00.464Z,6.07
2022-09-16T13:40:30.859Z,7.10
2022-09-16T13:43:07.983Z,8.20
2022-09-16T13:45:38.799Z,5.63
2022-09-16T13:48:15.550Z,7.18
2022-09-16T13:50:52.914Z,10.18
2022-09-16T13:53:46.001Z,4.30
2022-09-16T13:56:31.597Z,6.05
2022-09-16T13:59:13.001Z,4.45
2022-09-16T14:01:59.908Z,5.22
2022-09-16T14:04:56.573Z,5.80
2022-09-16T14:07:56.144Z,6.78
2022-09-16T14:10:39.605Z,9.20
2022-09-16T14:13:16.669Z,6.03
2022-09-16T14:15:50.426Z,5.40
2022-09-16T14:18:26.590Z,5.00
2022-09-16T14:21:16.803Z,3.92
2022-09-16T14:23:43.642Z,5.22
2022-09-16T14:26:14.101Z,2.85
2022-09-16T14:28:41.260Z,3.97
2022-09-16T14:31:15.283Z,4.68
2022-09-16T14:33:49.263Z,6.07
2022-09-16T14:36:44.105Z,9.88
2022-09-16T14:39:16.172Z,6.13
2022-09-16T14:41:48.580Z,6.13
2022-09-16T14:44:25.483Z,7.22
2022-09-16T14:47:21.893Z,6.10
2022-09-16T14:50:05.222Z,5.72
2022-09-16T14:52:35.460Z,5.78
2022-09-16T14:55:07.147Z,8.57
2022-09-16T14:57:34.298Z,10.38
2022-09-16T15:00:11.851Z,7.95
2022-09-16T15:02:59.110Z,9.13
2022-09-16T15:05:34.355Z,9.82
2022-09-16T15:08:57.302Z,7.43
2022-09-16T15:11:48.385Z,7.72
2022-09-16T15:14:17.970Z,5.15
2022-09-16T15:16:58.572Z,8.27
2022-09-16T15:19:39.122Z,9.45
2022-09-16T15:22:13.269Z,7.85
2022-09-16T15:24:41.366Z,8.93
2022-09-16T15:27:09.609Z,7.57
2022-09-16T15:29:52.513Z,8.57
2022-09-16T15:32:23.177Z,6.32
2022-09-16T15:35:19.830Z,7.80
2022-09-16T15:37:46.744Z,8.80
2022-09-16T15:40:25.747Z,4.60
2022-09-16T15:43:18.479Z,3.65
2022-09-16T15:45:59.097Z,11.35
2022-09-16T15:48:33.971Z,4.38
2022-09-16T15:51:29.310Z,3.03
2022-09-16T15:54:14.211Z,3.20
2022-09-16T15:57:11.096Z,6.75
2022-09-16T15:59:53.063Z,6.30
2022-09-16T16:02:44.740Z,6.25
2022-09-16T16:05:18.265Z,3.80
2022-09-16T16:07:59.410Z,8.00
2022-09-16T16:10:33.089Z,6.72
2022-09-16T16:13:01.740Z,6.07
2022-09-16T16:15:39.893Z,9.15
2022-09-16T16:18:10.676Z,9.30
2022-09-16T16:20:37.949Z,5.75
2022-09-16T16:23:04.785Z,5.35
2022-09-16T16:25:32.227Z,4.07
2022-09-16T16:27:58.994Z,8.68
2022-09-16T16:30:25.778Z,5.63
2022-09-16T16:32:52.580Z,4.88
2022-09-16T16:35:19.320Z,8.80
2022-09-16T16:37:47.400Z,4.32
2022-09-16T16:40:15.872Z,7.20
2022-09-16T16:42:44.388Z,6.40
2022-09-16T16:45:13.292Z,9.30
2022-09-16T16:47:40.432Z,5.97
2022-09-16T16:50:07.704Z,5.13
2022-09-16T16:52:34.547Z,5.63
2022-09-16T16:55:01.273Z,5.57
2022-09-16T16:57:29.090Z,7.43
2022-09-16T16:59:56.292Z,5.90
2022-09-16T17:02:23.312Z,8.32
2022-09-16T17:04:50.251Z,5.57
2022-09-16T17:07:32.520Z,7.03
2022-09-16T17:09:59.350Z,5.88
2022-09-16T17:12:26.795Z,7.20
2022-09-16T17:14:53.732Z,7.25
2022-09-16T17:17:20.493Z,9.10
2022-09-16T17:19:47.252Z,6.50
2022-09-16T17:22:14.032Z,6.63
2022-09-16T17:24:40.783Z,8.18
2022-09-16T17:27:07.641Z,7.70
2022-09-16T17:29:34.451Z,9.32
2022-09-16T17:32:02.939Z,6.57
2022-09-16T17:34:30.087Z,8.32
2022-09-16T17:36:58.330Z,5.93
2022-09-16T17:39:25.701Z,7.68
2022-09-16T17:41:54.331Z,8.73
2022-09-16T17:44:21.220Z,8.65
2022-09-16T17:46:47.987Z,6.57
2022-09-16T17:49:22.096Z,10.30
2022-09-16T17:51:50.988Z,11.30
2022-09-16T17:54:18.492Z,11.38
2022-09-16T17:56:46.206Z,11.15
2022-09-16T17:59:17.305Z,8.45
2022-09-16T18:01:44.256Z,9.35
2022-09-16T18:04:11.300Z,10.73
2022-09-16T18:06:46.604Z,9.85
2022-09-16T18:09:16.052Z,7.53
2022-09-16T18:11:42.945Z,8.88
2022-09-16T18:14:14.868Z,7.82
2022-09-16T18:16:43.365Z,9.65
2022-09-16T18:19:10.198Z,6.65
2022-09-16T18:21:38.079Z,8.75
2022-09-16T18:24:10.871Z,6.18
2022-09-16T18:26:38.163Z,6.75
2022-09-16T18:29:10.149Z,8.80
2022-09-16T18:31:48.904Z,6.13
2022-09-16T18:34:17.691Z,7.65
2022-09-16T18:36:44.942Z,5.25
2022-09-16T18:39:15.294Z,6.70
2022-09-16T18:41:45.027Z,5.30
2022-09-16T18:44:20.453Z,5.43
2022-09-16T18:46:48.074Z,3.28
2022-09-16T18:49:17.180Z,2.05
2022-09-16T18:51:51.286Z,9.38
2022-09-16T18:54:30.327Z,4.28
2022-09-16T18:57:00.036Z,5.68
2022-09-16T18:59:34.016Z,6.65
2022-09-16T19:02:08.467Z,6.43
2022-09-16T19:04:41.399Z,6.85
2022-09-16T19:07:13.214Z,7.78
2022-09-16T19:09:40.680Z,7.18
2022-09-16T19:12:12.776Z,9.82
2022-09-16T19:14:40.862Z,7.38
2022-09-16T19:17:07.858Z,5.90
2022-09-16T19:19:34.861Z,7.05
2022-09-16T19:22:05.396Z,8.32
2022-09-16T19:24:32.478Z,7.13
2022-09-16T19:26:59.331Z,8.40
2022-09-16T19:29:26.088Z,4.93
2022-09-16T19:31:53.309Z,10.48
2022-09-16T19:34:21.997Z,7.88
2022-09-16T19:36:49.782Z,11.18
2022-09-16T19:39:16.903Z,9.80
2022-09-16T19:41:43.795Z,10.50
2022-09-16T19:44:14.636Z,5.22
2022-09-16T19:46:42.945Z,7.20
2022-09-16T19:49:16.781Z,4.40
2022-09-16T19:51:43.552Z,4.57
2022-09-16T19:54:10.794Z,4.35
2022-09-16T19:56:37.611Z,4.47
2022-09-16T19:59:04.548Z,2.78
2022-09-16T20:01:34.539Z,3.55
2022-09-16T20:04:04.262Z,4.32
2022-09-16T20:06:36.442Z,3.95
2022-09-16T20:09:07.728Z,4.78
2022-09-16T20:11:38.139Z,4.65
2022-09-16T20:14:11.467Z,4.10
2022-09-16T20:16:39.753Z,3.83
2022-09-16T20:19:10.394Z,2.88
2022-09-16T20:21:38.506Z,5.60
2022-09-16T20:24:08.183Z,3.20
2022-09-16T20:26:35.876Z,3.75
2022-09-16T20:29:03.942Z,5.72
2022-09-16T20:31:35.400Z,5.40
2022-09-16T20:34:03.751Z,5.18
2022-09-16T20:36:32.232Z,6.93
2022-09-16T20:39:00.135Z,5.03
2022-09-16T20:41:33.116Z,6.35
2022-09-16T20:44:00.554Z,5.28
2022-09-16T20:46:31.571Z,5.07
2022-09-16T20:49:05.044Z,4.85
2022-09-16T20:51:34.223Z,7.43
2022-09-16T20:54:07.930Z,6.55
2022-09-16T20:56:42.402Z,5.93
2022-09-16T20:59:12.894Z,9.35
2022-09-16T21:01:41.511Z,5.97
2022-09-16T21:04:17.265Z,6.78
2022-09-16T21:06:45.348Z,6.63
2022-09-16T21:09:14.905Z,5.25
2022-09-16T21:11:44.881Z,7.95
2022-09-16T21:14:15.789Z,9.77
2022-09-16T21:16:44.558Z,8.15
2022-09-16T21:19:13.258Z,7.40
2022-09-16T21:21:49.502Z,5.85
2022-09-16T21:24:17.412Z,7.85
2022-09-16T21:26:45.283Z,9.85
2022-09-16T21:29:18.747Z,10.30
2022-09-16T21:31:45.584Z,11.30
2022-09-16T21:34:19.097Z,6.97
2022-09-16T21:36:47.069Z,6.68
2022-09-16T21:39:16.150Z,9.30
2022-09-16T21:41:44.649Z,9.27
2022-09-16T21:44:12.898Z,6.72
2022-09-16T21:46:44.888Z,10.18
2022-09-16T21:49:28.851Z,8.02
2022-09-16T21:51:58.662Z,8.73
2022-09-16T21:54:26.613Z,9.43
2022-09-16T21:56:53.492Z,6.82
2022-09-16T21:59:20.881Z,8.35
2022-09-16T22:01:50.235Z,7.82
2022-09-16T22:04:23.936Z,10.32
2022-09-16T22:06:54.640Z,10.23
2022-09-16T22:09:21.598Z,11.30
2022-09-16T22:11:48.511Z,5.20
2022-09-16T22:14:16.065Z,11.15
2022-09-16T22:16:42.851Z,12.40
2022-09-16T22:19:14.721Z,9.05
2022-09-16T22:21:45.365Z,6.57
2022-09-16T22:24:13.560Z,9.93
2022-09-16T22:26:40.469Z,8.07
2022-09-16T22:29:09.020Z,10.55
2022-09-16T22:31:39.012Z,12.23
2022-09-16T22:34:06.033Z,12.18
2022-09-16T22:36:35.654Z,7.40
2022-09-16T22:39:08.156Z,9.80
2022-09-16T22:41:35.221Z,12.88
2022-09-16T22:44:02.787Z,13.98
2022-09-16T22:46:40.282Z,9.88
2022-09-16T22:49:07.266Z,8.90
2022-09-16T22:51:33.995Z,13.27
2022-09-16T22:54:00.825Z,10.05
2022-09-16T22:56:32.106Z,11.38
2022-09-16T22:59:02.171Z,9.98
2022-09-16T23:01:36.596Z,10.48
2022-09-16T23:04:05.425Z,10.05
2022-09-16T23:06:34.726Z,10.88
2022-09-16T23:09:02.111Z,11.05
2022-09-16T23:11:32.845Z,9.68
2022-09-16T23:14:01.188Z,7.47
2022-09-16T23:16:31.918Z,7.20
2022-09-16T23:19:02.515Z,11.10
2022-09-16T23:21:30.857Z,10.00
2022-09-16T23:24:03.158Z,10.32
2022-09-16T23:26:35.164Z,9.52
2022-09-16T23:29:06.223Z,7.00
2022-09-16T23:31:38.154Z,11.18
2022-09-16T23:34:07.549Z,7.70
2022-09-16T23:36:37.410Z,5.95
2022-09-16T23:39:06.889Z,7.03
2022-09-16T23:41:34.836Z,6.45
2022-09-16T23:44:02.187Z,8.23
2022-09-16T23:46:30.961Z,10.90
2022-09-16T23:48:59.245Z,9.20
2022-09-16T23:51:28.897Z,8.57
2022-09-16T23:53:58.218Z,7.63
2022-09-16T23:56:26.010Z,7.30
2022-09-16T23:58:53.623Z,7.93
